Alto, Louisiana
Current Conditions -  °F | °C
As of 7:53 AM on Wednesday 26 Nov 2014 (Local Time) from KMLU Reporting Station
Clear Clear  
Wind Chill: 36°   Ceiling: Unl
Heat Index: 39°   Visibility: 10mi
Dew Point: 35°   Wind: 5mph
Humidity: 86%   Direction: 180°S
Pressure: 30.16"   Gusts: NA
Location:  32.4475°N, 91.7992°W
Report Text: KMLU 261353Z 18004KT 10SM CLR 04/02 A3016 RMK AO2 SLP214 T00390017
Loading
Personal Weather Stations






























Interactive Weather Map New forecast layout! Learn more

10-Day Weather Forecast

Advertisements
Track Severe Weather on mobile